Aguadilla, PR (00603)

5:34 AM AST on November 29, 2014 (GMT -0400)
Manejo de Emergencias Aguadilla | Change Station
CLOSE
Current Station
Personal Weather Station
Location: Aguadilla, PR
Elevation: 60 ft
Nearby Weather Stations

Elev 60 ft 18.44 °N, 67.15 °W | Updated 4 minutes ago

Clear
Clear
73.7 °F
Feels Like 72 °F
N
8.0
Wind Variable Wind from SSW
Gusts 13.0 mph

Today
High -- | Low -- °F
--% Chance of Precip.
Yesterday
High -- | Low -- °F
Precip. -- in
6:43 AM 5:50 PM
Waxing Crescent, 50% visible
Pressure 29.94 in
Visibility 10.0 miles
Clouds Clear
Heat Index 72 °F
Dew Point 70 °F
Humidity 89%
Rainfall -999.00 in
Snow Depth Not available.
UV 0 out of 12
Pollen Not available.
Air Quality Not available.
Flu Activity Not available.
METAR TJBQ 290850Z 13005KT 10SM SKC 22/20 A2994 RMK RWY08 ATIS L

More Conditions Fewer Conditions

Pressure 29.94 in
Visibility 10.0 miles
Clouds Clear
Heat Index 72 °F
Dew Point 70 °F
Humidity 89%
Rainfall -999.00 in
Snow Depth Not available.
UV 0 out of 12
Pollen Not available.
Air Quality Not available.
Flu Activity Not available.
METAR TJBQ 290850Z 13005KT 10SM SKC 22/20 A2994 RMK RWY08 ATIS L

More Conditions Fewer Conditions

10-Day Weather Forecast

Almanac

Astronomy

Nov. 29, 2014 Rise Set
Actual Time
Civil Twilight
Nautical Twilight
Astronomical Twilight
Moon
Length of Visible Light
Length of Day
Tomorrow will be .
, % of the Moon is Illuminated

Today's Extremes

State Highs State Lows

Community

WunderPhotos

Upload Photos

1,774,442 photos uploaded!

WunderBlogs® & News

Nearby

Air Quality

  Air Quality AQ Index Pollutant
Not available.

Snow Depth

Station Depth Elevation

Earthquake Activity

City Distance Mag. Time & Date
Minimum magnitude displayed is 2.5.

Coastal Water Temperatures

Place Temperature

Nearby Weather Stations